EETN/TLL METAR and TAF weather

Enter ICAO airport designator
Station Type Date Time Source
EETN METAR 2020/07/04 08:50 UTC NOAA

EETN 040850Z 20013KT 180V240 9999 BKN042 18/10 Q1008 NOSIG


Station Type Date Time Source
EETN Decoded METAR 2020/07/04 08:50 UTC NOAA

Tallinn, Estonia (EETN) 59-24N 024-49E 34M
Jul 04, 2020 - 04:50 AM EDT / 2020.07.04 0850 UTC
Wind: from the SSW (200 degrees) at 15 MPH (13 KT) (direction variable):0
Visibility: greater than 7 mile(s):0
Sky conditions: mostly cloudy
Temperature: 64 F (18 C)
Dew Point: 50 F (10 C)
Relative Humidity: 59%
Pressure (altimeter): 29.77 in. Hg (1008 hPa)
ob: EETN 040850Z 20013KT 180V240 9999 BKN042 18/10 Q1008 NOSIG
cycle: 9

Station Type Date Time Source
EETN TAF 2020/07/04 06:36 UTC NOAA

TAF TAF EETN 040530Z 0406/0506 20014KT 9999 SCT010 BKN020
BECMG 0408/0410 BKN015 SCT025CB
TEMPO 0409/0418 19016G26KT
TEMPO 0410/0416 4000 SHRA BKN007 SCT020CB
TEMPO 0421/0506 3000 SHRA BR BKN005 BKN020CB

Example: see airport list